sensor_id;sensor_type;location;lat;lon;timestamp;P1;durP1;ratioP1;P2;durP2;ratioP2
9807;SDS011;4943;52.550;13.462;2022-11-14T00:01:28;29.33;;;15.43;;
9807;SDS011;4943;52.550;13.462;2022-11-14T00:03:56;28.40;;;15.33;;
9807;SDS011;4943;52.550;13.462;2022-11-14T00:06:25;32.63;;;15.83;;
9807;SDS011;4943;52.550;13.462;2022-11-14T00:08:54;29.33;;;15.37;;
9807;SDS011;4943;52.550;13.462;2022-11-14T00:11:23;31.80;;;14.90;;
9807;SDS011;4943;52.550;13.462;2022-11-14T00:13:51;31.73;;;15.77;;
9807;SDS011;4943;52.550;13.462;2022-11-14T00:16:19;28.17;;;14.60;;
9807;SDS011;4943;52.550;13.462;2022-11-14T00:18:47;31.93;;;16.23;;
9807;SDS011;4943;52.550;13.462;2022-11-14T00:21:16;32.00;;;15.53;;
9807;SDS011;4943;52.550;13.462;2022-11-14T00:23:44;31.10;;;15.03;;
9807;SDS011;4943;52.550;13.462;2022-11-14T00:26:14;29.83;;;15.60;;
9807;SDS011;4943;52.550;13.462;2022-11-14T00:28:43;29.23;;;15.40;;
9807;SDS011;4943;52.550;13.462;2022-11-14T00:31:11;35.90;;;16.00;;
9807;SDS011;4943;52.550;13.462;2022-11-14T00:33:39;32.70;;;16.90;;
9807;SDS011;4943;52.550;13.462;2022-11-14T00:36:08;32.00;;;15.67;;
9807;SDS011;4943;52.550;13.462;2022-11-14T00:38:36;32.90;;;17.50;;
9807;SDS011;4943;52.550;13.462;2022-11-14T00:41:05;31.13;;;16.10;;
9807;SDS011;4943;52.550;13.462;2022-11-14T00:43:34;29.77;;;15.37;;
9807;SDS011;4943;52.550;13.462;2022-11-14T00:46:03;30.30;;;15.83;;
9807;SDS011;4943;52.550;13.462;2022-11-14T00:48:31;26.07;;;15.60;;
9807;SDS011;4943;52.550;13.462;2022-11-14T00:50:59;31.03;;;15.37;;
9807;SDS011;4943;52.550;13.462;2022-11-14T00:53:28;29.40;;;15.53;;
9807;SDS011;4943;52.550;13.462;2022-11-14T00:55:56;31.87;;;15.87;;
9807;SDS011;4943;52.550;13.462;2022-11-14T00:58:24;35.67;;;16.27;;
9807;SDS011;4943;52.550;13.462;2022-11-14T01:00:54;34.90;;;16.50;;
9807;SDS011;4943;52.550;13.462;2022-11-14T01:03:23;28.97;;;15.17;;
9807;SDS011;4943;52.550;13.462;2022-11-14T01:05:51;36.67;;;16.00;;
9807;SDS011;4943;52.550;13.462;2022-11-14T01:08:19;33.23;;;16.17;;
9807;SDS011;4943;52.550;13.462;2022-11-14T01:10:48;37.43;;;16.23;;
9807;SDS011;4943;52.550;13.462;2022-11-14T01:13:17;31.73;;;16.20;;
9807;SDS011;4943;52.550;13.462;2022-11-14T01:15:47;33.87;;;15.50;;
9807;SDS011;4943;52.550;13.462;2022-11-14T01:18:19;34.77;;;17.73;;
9807;SDS011;4943;52.550;13.462;2022-11-14T01:20:48;34.93;;;17.10;;
9807;SDS011;4943;52.550;13.462;2022-11-14T01:23:16;34.00;;;16.30;;
9807;SDS011;4943;52.550;13.462;2022-11-14T01:25:45;32.97;;;15.87;;
9807;SDS011;4943;52.550;13.462;2022-11-14T01:28:14;34.43;;;17.00;;
9807;SDS011;4943;52.550;13.462;2022-11-14T01:30:46;31.90;;;16.37;;
9807;SDS011;4943;52.550;13.462;2022-11-14T01:33:15;31.20;;;16.63;;
9807;SDS011;4943;52.550;13.462;2022-11-14T01:35:44;29.00;;;14.87;;
9807;SDS011;4943;52.550;13.462;2022-11-14T01:38:13;39.37;;;17.17;;
9807;SDS011;4943;52.550;13.462;2022-11-14T01:40:42;34.13;;;17.57;;
9807;SDS011;4943;52.550;13.462;2022-11-14T01:43:25;36.00;;;16.90;;
9807;SDS011;4943;52.550;13.462;2022-11-14T01:45:56;31.93;;;16.40;;
9807;SDS011;4943;52.550;13.462;2022-11-14T01:48:28;35.87;;;17.40;;
9807;SDS011;4943;52.550;13.462;2022-11-14T01:51:04;28.50;;;14.80;;
9807;SDS011;4943;52.550;13.462;2022-11-14T01:53:42;29.50;;;14.73;;
9807;SDS011;4943;52.550;13.462;2022-11-14T01:56:13;32.43;;;15.93;;
9807;SDS011;4943;52.550;13.462;2022-11-14T01:58:46;37.87;;;17.30;;
9807;SDS011;4943;52.550;13.462;2022-11-14T02:01:18;30.83;;;16.00;;
9807;SDS011;4943;52.550;13.462;2022-11-14T02:03:47;35.93;;;16.63;;
9807;SDS011;4943;52.550;13.462;2022-11-14T02:06:20;35.53;;;16.03;;
9807;SDS011;4943;52.550;13.462;2022-11-14T02:08:52;42.37;;;17.83;;
9807;SDS011;4943;52.550;13.462;2022-11-14T02:11:21;36.43;;;16.03;;
9807;SDS011;4943;52.550;13.462;2022-11-14T02:13:50;41.30;;;18.53;;
9807;SDS011;4943;52.550;13.462;2022-11-14T02:16:18;39.43;;;17.53;;
9807;SDS011;4943;52.550;13.462;2022-11-14T02:18:47;32.37;;;16.63;;
9807;SDS011;4943;52.550;13.462;2022-11-14T02:21:16;38.20;;;18.53;;
9807;SDS011;4943;52.550;13.462;2022-11-14T02:23:45;36.27;;;17.77;;
9807;SDS011;4943;52.550;13.462;2022-11-14T02:26:15;41.57;;;17.07;;
9807;SDS011;4943;52.550;13.462;2022-11-14T02:28:45;34.60;;;16.10;;
9807;SDS011;4943;52.550;13.462;2022-11-14T02:31:14;44.63;;;18.60;;
9807;SDS011;4943;52.550;13.462;2022-11-14T02:33:43;39.27;;;18.20;;
9807;SDS011;4943;52.550;13.462;2022-11-14T02:36:11;39.53;;;18.37;;
9807;SDS011;4943;52.550;13.462;2022-11-14T02:38:41;40.93;;;17.37;;
9807;SDS011;4943;52.550;13.462;2022-11-14T02:41:09;39.90;;;17.53;;
9807;SDS011;4943;52.550;13.462;2022-11-14T02:43:38;37.37;;;16.93;;
9807;SDS011;4943;52.550;13.462;2022-11-14T02:46:06;35.27;;;15.97;;
9807;SDS011;4943;52.550;13.462;2022-11-14T02:48:34;34.70;;;17.50;;
9807;SDS011;4943;52.550;13.462;2022-11-14T02:51:03;34.47;;;16.87;;
9807;SDS011;4943;52.550;13.462;2022-11-14T02:53:31;42.20;;;17.73;;
9807;SDS011;4943;52.550;13.462;2022-11-14T02:56:01;38.03;;;17.20;;
9807;SDS011;4943;52.550;13.462;2022-11-14T02:58:29;39.87;;;18.33;;
9807;SDS011;4943;52.550;13.462;2022-11-14T03:00:58;35.57;;;15.07;;
9807;SDS011;4943;52.550;13.462;2022-11-14T03:03:46;33.20;;;15.93;;
9807;SDS011;4943;52.550;13.462;2022-11-14T03:06:14;38.13;;;17.37;;
9807;SDS011;4943;52.550;13.462;2022-11-14T03:08:42;37.93;;;17.87;;
9807;SDS011;4943;52.550;13.462;2022-11-14T03:11:12;39.30;;;16.93;;
9807;SDS011;4943;52.550;13.462;2022-11-14T03:13:41;37.37;;;17.80;;
9807;SDS011;4943;52.550;13.462;2022-11-14T03:16:10;40.13;;;18.77;;
9807;SDS011;4943;52.550;13.462;2022-11-14T03:18:39;38.53;;;15.53;;
9807;SDS011;4943;52.550;13.462;2022-11-14T03:21:09;36.50;;;17.87;;
9807;SDS011;4943;52.550;13.462;2022-11-14T03:23:38;39.47;;;16.17;;
9807;SDS011;4943;52.550;13.462;2022-11-14T03:26:07;35.70;;;17.43;;
9807;SDS011;4943;52.550;13.462;2022-11-14T03:28:38;37.40;;;18.83;;
9807;SDS011;4943;52.550;13.462;2022-11-14T03:31:08;43.63;;;16.87;;
9807;SDS011;4943;52.550;13.462;2022-11-14T03:33:38;37.27;;;17.07;;
9807;SDS011;4943;52.550;13.462;2022-11-14T03:36:06;34.83;;;17.27;;
9807;SDS011;4943;52.550;13.462;2022-11-14T03:38:35;40.00;;;17.50;;
9807;SDS011;4943;52.550;13.462;2022-11-14T03:41:04;34.00;;;16.73;;
9807;SDS011;4943;52.550;13.462;2022-11-14T03:43:32;35.00;;;16.50;;
9807;SDS011;4943;52.550;13.462;2022-11-14T03:46:02;39.93;;;16.47;;
9807;SDS011;4943;52.550;13.462;2022-11-14T03:48:31;38.43;;;16.20;;
9807;SDS011;4943;52.550;13.462;2022-11-14T03:50:59;42.53;;;16.93;;
9807;SDS011;4943;52.550;13.462;2022-11-14T03:53:28;34.73;;;16.20;;
9807;SDS011;4943;52.550;13.462;2022-11-14T03:55:56;36.63;;;17.43;;
9807;SDS011;4943;52.550;13.462;2022-11-14T03:58:24;36.67;;;15.93;;
9807;SDS011;4943;52.550;13.462;2022-11-14T04:00:53;39.53;;;18.07;;
9807;SDS011;4943;52.550;13.462;2022-11-14T04:03:23;40.77;;;17.90;;
9807;SDS011;4943;52.550;13.462;2022-11-14T04:05:52;30.70;;;15.40;;
9807;SDS011;4943;52.550;13.462;2022-11-14T04:08:20;31.03;;;15.83;;
9807;SDS011;4943;52.550;13.462;2022-11-14T04:10:49;39.60;;;16.43;;
9807;SDS011;4943;52.550;13.462;2022-11-14T04:13:17;41.73;;;17.70;;
9807;SDS011;4943;52.550;13.462;2022-11-14T04:15:46;37.13;;;16.03;;
9807;SDS011;4943;52.550;13.462;2022-11-14T04:18:20;38.33;;;17.23;;
9807;SDS011;4943;52.550;13.462;2022-11-14T04:20:50;44.07;;;17.57;;
9807;SDS011;4943;52.550;13.462;2022-11-14T04:23:18;37.37;;;16.07;;
9807;SDS011;4943;52.550;13.462;2022-11-14T04:25:47;42.97;;;17.83;;
9807;SDS011;4943;52.550;13.462;2022-11-14T04:28:15;42.57;;;18.17;;
9807;SDS011;4943;52.550;13.462;2022-11-14T04:30:43;35.30;;;16.77;;
9807;SDS011;4943;52.550;13.462;2022-11-14T04:33:12;40.60;;;17.83;;
9807;SDS011;4943;52.550;13.462;2022-11-14T04:35:40;37.40;;;17.10;;
9807;SDS011;4943;52.550;13.462;2022-11-14T04:38:10;40.00;;;17.60;;
9807;SDS011;4943;52.550;13.462;2022-11-14T04:40:38;38.53;;;16.27;;
9807;SDS011;4943;52.550;13.462;2022-11-14T04:43:06;39.93;;;17.30;;
9807;SDS011;4943;52.550;13.462;2022-11-14T04:45:35;35.70;;;16.83;;
9807;SDS011;4943;52.550;13.462;2022-11-14T04:48:03;42.90;;;18.33;;
9807;SDS011;4943;52.550;13.462;2022-11-14T04:50:32;43.67;;;17.50;;
9807;SDS011;4943;52.550;13.462;2022-11-14T04:53:00;43.47;;;17.97;;
9807;SDS011;4943;52.550;13.462;2022-11-14T04:55:30;38.67;;;16.13;;
9807;SDS011;4943;52.550;13.462;2022-11-14T04:57:58;41.97;;;17.30;;
9807;SDS011;4943;52.550;13.462;2022-11-14T05:00:27;47.17;;;18.13;;
9807;SDS011;4943;52.550;13.462;2022-11-14T05:02:57;41.00;;;16.83;;
9807;SDS011;4943;52.550;13.462;2022-11-14T05:05:26;38.63;;;17.00;;
9807;SDS011;4943;52.550;13.462;2022-11-14T05:07:54;39.70;;;18.03;;
9807;SDS011;4943;52.550;13.462;2022-11-14T05:10:22;42.23;;;18.73;;
9807;SDS011;4943;52.550;13.462;2022-11-14T05:12:53;48.10;;;18.97;;
9807;SDS011;4943;52.550;13.462;2022-11-14T05:15:22;48.93;;;20.13;;
9807;SDS011;4943;52.550;13.462;2022-11-14T05:17:50;41.97;;;17.30;;
9807;SDS011;4943;52.550;13.462;2022-11-14T05:20:19;48.80;;;18.17;;
9807;SDS011;4943;52.550;13.462;2022-11-14T05:22:47;36.23;;;16.53;;
9807;SDS011;4943;52.550;13.462;2022-11-14T05:25:19;40.40;;;17.60;;
9807;SDS011;4943;52.550;13.462;2022-11-14T05:27:48;39.47;;;16.87;;
9807;SDS011;4943;52.550;13.462;2022-11-14T05:30:18;37.20;;;16.27;;
9807;SDS011;4943;52.550;13.462;2022-11-14T05:32:46;41.10;;;17.67;;
9807;SDS011;4943;52.550;13.462;2022-11-14T05:35:15;40.20;;;17.07;;
9807;SDS011;4943;52.550;13.462;2022-11-14T05:37:43;43.30;;;19.57;;
9807;SDS011;4943;52.550;13.462;2022-11-14T05:40:12;34.17;;;17.20;;
9807;SDS011;4943;52.550;13.462;2022-11-14T05:42:42;37.20;;;16.40;;
9807;SDS011;4943;52.550;13.462;2022-11-14T05:45:10;41.90;;;18.07;;
9807;SDS011;4943;52.550;13.462;2022-11-14T05:47:40;40.27;;;17.57;;
9807;SDS011;4943;52.550;13.462;2022-11-14T05:50:08;41.67;;;18.40;;
9807;SDS011;4943;52.550;13.462;2022-11-14T05:52:37;37.07;;;18.17;;
9807;SDS011;4943;52.550;13.462;2022-11-14T05:55:06;40.60;;;17.17;;
9807;SDS011;4943;52.550;13.462;2022-11-14T05:57:34;42.33;;;16.77;;
9807;SDS011;4943;52.550;13.462;2022-11-14T06:00:03;43.03;;;18.63;;
9807;SDS011;4943;52.550;13.462;2022-11-14T06:02:32;43.73;;;19.00;;
9807;SDS011;4943;52.550;13.462;2022-11-14T06:05:02;44.07;;;17.77;;
9807;SDS011;4943;52.550;13.462;2022-11-14T06:07:30;41.70;;;18.43;;
9807;SDS011;4943;52.550;13.462;2022-11-14T06:09:59;40.70;;;17.67;;
9807;SDS011;4943;52.550;13.462;2022-11-14T06:12:27;43.53;;;18.97;;
9807;SDS011;4943;52.550;13.462;2022-11-14T06:14:57;37.20;;;17.47;;
9807;SDS011;4943;52.550;13.462;2022-11-14T06:17:26;46.73;;;17.40;;
9807;SDS011;4943;52.550;13.462;2022-11-14T06:19:54;48.50;;;18.77;;
9807;SDS011;4943;52.550;13.462;2022-11-14T06:22:24;43.60;;;16.83;;
9807;SDS011;4943;52.550;13.462;2022-11-14T06:24:52;45.07;;;17.80;;
9807;SDS011;4943;52.550;13.462;2022-11-14T06:27:20;48.50;;;20.00;;
9807;SDS011;4943;52.550;13.462;2022-11-14T06:29:49;44.60;;;18.50;;
9807;SDS011;4943;52.550;13.462;2022-11-14T06:32:17;36.77;;;16.80;;
9807;SDS011;4943;52.550;13.462;2022-11-14T06:34:45;45.83;;;19.00;;
9807;SDS011;4943;52.550;13.462;2022-11-14T06:37:14;46.17;;;19.37;;
9807;SDS011;4943;52.550;13.462;2022-11-14T06:39:44;36.13;;;15.33;;
9807;SDS011;4943;52.550;13.462;2022-11-14T06:42:12;49.20;;;18.40;;
9807;SDS011;4943;52.550;13.462;2022-11-14T06:44:42;39.40;;;16.67;;
9807;SDS011;4943;52.550;13.462;2022-11-14T06:47:10;46.00;;;17.27;;
9807;SDS011;4943;52.550;13.462;2022-11-14T06:49:39;38.03;;;17.70;;
9807;SDS011;4943;52.550;13.462;2022-11-14T06:52:07;39.10;;;16.37;;
9807;SDS011;4943;52.550;13.462;2022-11-14T06:54:35;48.40;;;18.40;;
9807;SDS011;4943;52.550;13.462;2022-11-14T06:57:05;47.03;;;17.47;;
9807;SDS011;4943;52.550;13.462;2022-11-14T06:59:33;44.90;;;19.10;;
9807;SDS011;4943;52.550;13.462;2022-11-14T07:02:02;47.97;;;18.17;;
9807;SDS011;4943;52.550;13.462;2022-11-14T07:04:30;41.53;;;18.17;;
9807;SDS011;4943;52.550;13.462;2022-11-14T07:06:58;40.97;;;17.73;;
9807;SDS011;4943;52.550;13.462;2022-11-14T07:09:27;42.77;;;17.60;;
9807;SDS011;4943;52.550;13.462;2022-11-14T07:11:55;43.37;;;16.13;;
9807;SDS011;4943;52.550;13.462;2022-11-14T07:14:25;42.80;;;17.80;;
9807;SDS011;4943;52.550;13.462;2022-11-14T07:16:54;45.23;;;18.63;;
9807;SDS011;4943;52.550;13.462;2022-11-14T07:19:22;45.03;;;17.37;;
9807;SDS011;4943;52.550;13.462;2022-11-14T07:21:50;41.97;;;17.57;;
9807;SDS011;4943;52.550;13.462;2022-11-14T07:24:19;37.17;;;18.10;;
9807;SDS011;4943;52.550;13.462;2022-11-14T07:26:47;44.97;;;18.17;;
9807;SDS011;4943;52.550;13.462;2022-11-14T07:29:15;39.33;;;17.50;;
9807;SDS011;4943;52.550;13.462;2022-11-14T07:31:45;35.43;;;16.63;;
9807;SDS011;4943;52.550;13.462;2022-11-14T07:34:13;36.67;;;16.23;;
9807;SDS011;4943;52.550;13.462;2022-11-14T07:36:42;47.27;;;16.50;;
9807;SDS011;4943;52.550;13.462;2022-11-14T07:39:10;32.23;;;15.03;;
9807;SDS011;4943;52.550;13.462;2022-11-14T07:41:38;38.37;;;16.63;;
9807;SDS011;4943;52.550;13.462;2022-11-14T07:44:07;38.50;;;16.53;;
9807;SDS011;4943;52.550;13.462;2022-11-14T07:46:35;37.70;;;15.73;;
9807;SDS011;4943;52.550;13.462;2022-11-14T07:49:05;42.57;;;17.17;;
9807;SDS011;4943;52.550;13.462;2022-11-14T07:51:33;43.40;;;16.30;;
9807;SDS011;4943;52.550;13.462;2022-11-14T07:54:02;38.80;;;16.03;;
9807;SDS011;4943;52.550;13.462;2022-11-14T07:56:31;40.70;;;18.37;;
9807;SDS011;4943;52.550;13.462;2022-11-14T07:58:59;43.40;;;17.30;;
9807;SDS011;4943;52.550;13.462;2022-11-14T08:01:27;42.20;;;16.67;;
9807;SDS011;4943;52.550;13.462;2022-11-14T08:03:56;32.30;;;16.40;;
9807;SDS011;4943;52.550;13.462;2022-11-14T08:06:25;39.87;;;16.13;;
9807;SDS011;4943;52.550;13.462;2022-11-14T08:08:54;38.83;;;15.90;;
9807;SDS011;4943;52.550;13.462;2022-11-14T08:11:22;36.07;;;15.57;;
9807;SDS011;4943;52.550;13.462;2022-11-14T08:14:04;41.33;;;16.90;;
9807;SDS011;4943;52.550;13.462;2022-11-14T08:16:33;39.13;;;17.00;;
9807;SDS011;4943;52.550;13.462;2022-11-14T08:19:01;35.67;;;16.70;;
9807;SDS011;4943;52.550;13.462;2022-11-14T08:21:31;39.53;;;16.87;;
9807;SDS011;4943;52.550;13.462;2022-11-14T08:24:00;40.07;;;16.60;;
9807;SDS011;4943;52.550;13.462;2022-11-14T08:26:28;40.53;;;16.97;;
9807;SDS011;4943;52.550;13.462;2022-11-14T08:28:59;41.23;;;17.60;;
9807;SDS011;4943;52.550;13.462;2022-11-14T08:31:28;37.13;;;16.30;;
9807;SDS011;4943;52.550;13.462;2022-11-14T08:33:56;34.87;;;15.80;;
9807;SDS011;4943;52.550;13.462;2022-11-14T08:36:24;39.97;;;16.43;;
9807;SDS011;4943;52.550;13.462;2022-11-14T08:38:54;42.00;;;16.23;;
9807;SDS011;4943;52.550;13.462;2022-11-14T08:41:27;40.73;;;16.63;;
9807;SDS011;4943;52.550;13.462;2022-11-14T08:43:55;38.90;;;16.40;;
9807;SDS011;4943;52.550;13.462;2022-11-14T08:46:24;38.20;;;17.13;;
9807;SDS011;4943;52.550;13.462;2022-11-14T08:48:52;45.77;;;16.80;;
9807;SDS011;4943;52.550;13.462;2022-11-14T08:51:20;36.63;;;16.60;;
9807;SDS011;4943;52.550;13.462;2022-11-14T08:53:49;42.97;;;16.80;;
9807;SDS011;4943;52.550;13.462;2022-11-14T08:56:19;38.30;;;15.77;;
9807;SDS011;4943;52.550;13.462;2022-11-14T08:58:47;37.33;;;16.20;;
9807;SDS011;4943;52.550;13.462;2022-11-14T09:01:15;36.30;;;15.73;;
9807;SDS011;4943;52.550;13.462;2022-11-14T09:03:44;33.77;;;14.87;;
9807;SDS011;4943;52.550;13.462;2022-11-14T09:06:12;34.03;;;15.57;;
9807;SDS011;4943;52.550;13.462;2022-11-14T09:08:40;34.00;;;15.27;;
9807;SDS011;4943;52.550;13.462;2022-11-14T09:11:09;32.13;;;16.23;;
9807;SDS011;4943;52.550;13.462;2022-11-14T09:13:45;35.00;;;15.13;;
9807;SDS011;4943;52.550;13.462;2022-11-14T09:16:13;32.10;;;15.10;;
9807;SDS011;4943;52.550;13.462;2022-11-14T09:18:42;36.90;;;17.47;;
9807;SDS011;4943;52.550;13.462;2022-11-14T09:21:10;42.33;;;16.40;;
9807;SDS011;4943;52.550;13.462;2022-11-14T09:23:39;32.20;;;16.03;;
9807;SDS011;4943;52.550;13.462;2022-11-14T09:26:08;35.37;;;16.00;;
9807;SDS011;4943;52.550;13.462;2022-11-14T09:28:36;32.57;;;14.10;;
9807;SDS011;4943;52.550;13.462;2022-11-14T09:31:07;33.73;;;15.80;;
9807;SDS011;4943;52.550;13.462;2022-11-14T09:33:38;35.70;;;15.00;;
9807;SDS011;4943;52.550;13.462;2022-11-14T09:36:08;25.70;;;13.23;;
9807;SDS011;4943;52.550;13.462;2022-11-14T09:38:41;34.53;;;15.77;;
9807;SDS011;4943;52.550;13.462;2022-11-14T09:41:18;35.00;;;15.33;;
9807;SDS011;4943;52.550;13.462;2022-11-14T09:43:58;30.63;;;14.13;;
9807;SDS011;4943;52.550;13.462;2022-11-14T09:46:47;35.37;;;15.83;;
9807;SDS011;4943;52.550;13.462;2022-11-14T09:49:22;28.77;;;14.67;;
9807;SDS011;4943;52.550;13.462;2022-11-14T09:51:56;30.83;;;14.73;;
9807;SDS011;4943;52.550;13.462;2022-11-14T09:54:32;34.83;;;15.80;;
9807;SDS011;4943;52.550;13.462;2022-11-14T09:57:09;34.30;;;14.57;;
9807;SDS011;4943;52.550;13.462;2022-11-14T09:59:41;31.90;;;15.60;;
9807;SDS011;4943;52.550;13.462;2022-11-14T10:02:15;33.60;;;14.23;;
9807;SDS011;4943;52.550;13.462;2022-11-14T10:04:59;31.67;;;14.43;;
9807;SDS011;4943;52.550;13.462;2022-11-14T10:07:39;27.83;;;13.67;;
9807;SDS011;4943;52.550;13.462;2022-11-14T10:10:20;31.17;;;13.97;;
9807;SDS011;4943;52.550;13.462;2022-11-14T10:13:05;27.63;;;13.73;;
9807;SDS011;4943;52.550;13.462;2022-11-14T10:15:44;26.97;;;13.50;;
9807;SDS011;4943;52.550;13.462;2022-11-14T10:18:25;27.27;;;12.60;;
9807;SDS011;4943;52.550;13.462;2022-11-14T10:21:04;30.43;;;13.43;;
9807;SDS011;4943;52.550;13.462;2022-11-14T10:23:41;35.23;;;14.00;;
9807;SDS011;4943;52.550;13.462;2022-11-14T10:26:19;28.53;;;13.27;;
9807;SDS011;4943;52.550;13.462;2022-11-14T10:28:59;32.17;;;15.03;;
9807;SDS011;4943;52.550;13.462;2022-11-14T10:31:42;31.80;;;13.93;;
9807;SDS011;4943;52.550;13.462;2022-11-14T10:34:21;31.17;;;14.83;;
9807;SDS011;4943;52.550;13.462;2022-11-14T10:36:56;25.60;;;13.83;;
9807;SDS011;4943;52.550;13.462;2022-11-14T10:39:30;30.70;;;14.17;;
9807;SDS011;4943;52.550;13.462;2022-11-14T10:42:08;35.73;;;14.13;;
9807;SDS011;4943;52.550;13.462;2022-11-14T10:44:41;27.97;;;12.57;;
9807;SDS011;4943;52.550;13.462;2022-11-14T10:47:17;29.27;;;13.60;;
9807;SDS011;4943;52.550;13.462;2022-11-14T10:49:51;30.13;;;14.03;;
9807;SDS011;4943;52.550;13.462;2022-11-14T10:52:31;28.23;;;14.03;;
9807;SDS011;4943;52.550;13.462;2022-11-14T10:55:05;24.80;;;12.67;;
9807;SDS011;4943;52.550;13.462;2022-11-14T10:57:36;25.40;;;12.67;;
9807;SDS011;4943;52.550;13.462;2022-11-14T11:00:10;27.67;;;12.53;;
9807;SDS011;4943;52.550;13.462;2022-11-14T11:02:47;26.40;;;12.57;;
9807;SDS011;4943;52.550;13.462;2022-11-14T11:05:20;29.43;;;14.03;;
9807;SDS011;4943;52.550;13.462;2022-11-14T11:07:51;31.30;;;13.17;;
9807;SDS011;4943;52.550;13.462;2022-11-14T11:10:57;25.23;;;11.90;;
9807;SDS011;4943;52.550;13.462;2022-11-14T11:13:47;27.70;;;13.30;;
9807;SDS011;4943;52.550;13.462;2022-11-14T11:16:21;27.63;;;13.70;;
9807;SDS011;4943;52.550;13.462;2022-11-14T11:18:50;30.43;;;12.70;;
9807;SDS011;4943;52.550;13.462;2022-11-14T11:21:21;29.07;;;13.73;;
9807;SDS011;4943;52.550;13.462;2022-11-14T11:23:50;23.43;;;12.13;;
9807;SDS011;4943;52.550;13.462;2022-11-14T11:26:21;29.17;;;12.87;;
9807;SDS011;4943;52.550;13.462;2022-11-14T11:29:00;27.70;;;13.83;;
9807;SDS011;4943;52.550;13.462;2022-11-14T11:31:47;41.10;;;23.10;;
9807;SDS011;4943;52.550;13.462;2022-11-14T11:34:18;23.63;;;12.30;;
9807;SDS011;4943;52.550;13.462;2022-11-14T11:36:52;26.40;;;13.03;;
9807;SDS011;4943;52.550;13.462;2022-11-14T11:39:26;27.17;;;12.37;;
9807;SDS011;4943;52.550;13.462;2022-11-14T11:41:57;26.30;;;12.67;;
9807;SDS011;4943;52.550;13.462;2022-11-14T11:44:37;25.63;;;12.37;;
9807;SDS011;4943;52.550;13.462;2022-11-14T11:47:11;23.10;;;12.23;;
9807;SDS011;4943;52.550;13.462;2022-11-14T11:49:43;27.70;;;12.47;;
9807;SDS011;4943;52.550;13.462;2022-11-14T11:52:22;24.07;;;12.40;;
9807;SDS011;4943;52.550;13.462;2022-11-14T11:54:58;43.83;;;27.27;;
9807;SDS011;4943;52.550;13.462;2022-11-14T11:57:32;26.33;;;13.10;;
9807;SDS011;4943;52.550;13.462;2022-11-14T12:00:05;28.53;;;14.43;;
9807;SDS011;4943;52.550;13.462;2022-11-14T12:02:34;26.00;;;12.87;;
9807;SDS011;4943;52.550;13.462;2022-11-14T12:05:15;25.00;;;12.27;;
9807;SDS011;4943;52.550;13.462;2022-11-14T12:07:52;27.83;;;12.93;;
9807;SDS011;4943;52.550;13.462;2022-11-14T12:10:26;19.73;;;11.47;;
9807;SDS011;4943;52.550;13.462;2022-11-14T12:13:14;26.47;;;12.57;;
9807;SDS011;4943;52.550;13.462;2022-11-14T12:16:02;28.90;;;13.33;;
9807;SDS011;4943;52.550;13.462;2022-11-14T12:18:52;22.93;;;12.23;;
9807;SDS011;4943;52.550;13.462;2022-11-14T12:21:47;23.47;;;12.70;;
9807;SDS011;4943;52.550;13.462;2022-11-14T12:24:38;20.73;;;11.63;;
9807;SDS011;4943;52.550;13.462;2022-11-14T12:27:22;21.27;;;11.00;;
9807;SDS011;4943;52.550;13.462;2022-11-14T12:30:08;24.30;;;11.83;;
9807;SDS011;4943;52.550;13.462;2022-11-14T12:32:42;29.33;;;12.83;;
9807;SDS011;4943;52.550;13.462;2022-11-14T12:35:16;23.70;;;12.10;;
9807;SDS011;4943;52.550;13.462;2022-11-14T12:37:48;25.70;;;12.13;;
9807;SDS011;4943;52.550;13.462;2022-11-14T12:40:27;25.03;;;12.23;;
9807;SDS011;4943;52.550;13.462;2022-11-14T12:42:58;24.20;;;12.80;;
9807;SDS011;4943;52.550;13.462;2022-11-14T12:48:29;24.30;;;12.53;;
9807;SDS011;4943;52.550;13.462;2022-11-14T12:50:59;24.37;;;12.93;;
9807;SDS011;4943;52.550;13.462;2022-11-14T12:53:39;24.17;;;12.00;;
9807;SDS011;4943;52.550;13.462;2022-11-14T12:56:19;20.73;;;11.63;;
9807;SDS011;4943;52.550;13.462;2022-11-14T12:59:14;24.60;;;12.50;;
9807;SDS011;4943;52.550;13.462;2022-11-14T13:02:04;23.53;;;12.37;;
9807;SDS011;4943;52.550;13.462;2022-11-14T13:04:52;20.70;;;10.63;;
9807;SDS011;4943;52.550;13.462;2022-11-14T13:07:43;18.20;;;10.03;;
9807;SDS011;4943;52.550;13.462;2022-11-14T13:10:21;20.07;;;10.53;;
9807;SDS011;4943;52.550;13.462;2022-11-14T13:12:58;21.60;;;12.87;;
9807;SDS011;4943;52.550;13.462;2022-11-14T13:15:49;29.87;;;15.70;;
9807;SDS011;4943;52.550;13.462;2022-11-14T13:18:48;18.37;;;11.23;;
9807;SDS011;4943;52.550;13.462;2022-11-14T13:21:35;19.10;;;11.17;;
9807;SDS011;4943;52.550;13.462;2022-11-14T13:24:14;19.27;;;10.57;;
9807;SDS011;4943;52.550;13.462;2022-11-14T13:26:44;17.43;;;9.77;;
9807;SDS011;4943;52.550;13.462;2022-11-14T13:35:22;18.30;;;10.37;;
9807;SDS011;4943;52.550;13.462;2022-11-14T13:38:07;21.97;;;10.93;;
9807;SDS011;4943;52.550;13.462;2022-11-14T13:40:54;23.27;;;12.43;;
9807;SDS011;4943;52.550;13.462;2022-11-14T13:43:33;16.33;;;10.47;;
9807;SDS011;4943;52.550;13.462;2022-11-14T13:46:16;20.83;;;9.83;;
9807;SDS011;4943;52.550;13.462;2022-11-14T13:49:02;16.10;;;9.73;;
9807;SDS011;4943;52.550;13.462;2022-11-14T13:51:41;13.20;;;8.83;;
9807;SDS011;4943;52.550;13.462;2022-11-14T13:54:10;19.33;;;10.70;;
9807;SDS011;4943;52.550;13.462;2022-11-14T13:56:47;19.70;;;10.83;;
9807;SDS011;4943;52.550;13.462;2022-11-14T13:59:35;19.67;;;10.23;;
9807;SDS011;4943;52.550;13.462;2022-11-14T14:02:28;21.90;;;9.53;;
9807;SDS011;4943;52.550;13.462;2022-11-14T14:05:15;14.83;;;10.23;;
9807;SDS011;4943;52.550;13.462;2022-11-14T14:07:56;19.73;;;9.60;;
9807;SDS011;4943;52.550;13.462;2022-11-14T14:10:33;18.97;;;10.30;;
9807;SDS011;4943;52.550;13.462;2022-11-14T14:13:12;21.03;;;10.30;;
9807;SDS011;4943;52.550;13.462;2022-11-14T14:15:48;15.33;;;9.17;;
9807;SDS011;4943;52.550;13.462;2022-11-14T14:18:28;19.17;;;9.87;;
9807;SDS011;4943;52.550;13.462;2022-11-14T14:21:09;17.03;;;9.63;;
9807;SDS011;4943;52.550;13.462;2022-11-14T14:23:45;13.87;;;8.90;;
9807;SDS011;4943;52.550;13.462;2022-11-14T14:26:22;20.67;;;9.97;;
9807;SDS011;4943;52.550;13.462;2022-11-14T14:29:00;16.40;;;9.93;;
9807;SDS011;4943;52.550;13.462;2022-11-14T14:31:39;16.10;;;9.30;;
9807;SDS011;4943;52.550;13.462;2022-11-14T14:34:23;18.60;;;10.03;;
9807;SDS011;4943;52.550;13.462;2022-11-14T14:36:55;18.70;;;9.73;;
9807;SDS011;4943;52.550;13.462;2022-11-14T14:39:25;16.20;;;9.93;;
9807;SDS011;4943;52.550;13.462;2022-11-14T14:41:56;12.57;;;8.97;;
9807;SDS011;4943;52.550;13.462;2022-11-14T14:44:25;15.73;;;9.53;;
9807;SDS011;4943;52.550;13.462;2022-11-14T14:46:57;24.07;;;11.27;;
9807;SDS011;4943;52.550;13.462;2022-11-14T14:49:28;15.60;;;9.57;;
9807;SDS011;4943;52.550;13.462;2022-11-14T14:51:59;22.97;;;10.77;;
9807;SDS011;4943;52.550;13.462;2022-11-14T14:54:28;21.07;;;11.33;;
9807;SDS011;4943;52.550;13.462;2022-11-14T14:56:56;21.83;;;10.63;;
9807;SDS011;4943;52.550;13.462;2022-11-14T14:59:28;22.87;;;12.83;;
9807;SDS011;4943;52.550;13.462;2022-11-14T15:01:57;19.13;;;11.57;;
9807;SDS011;4943;52.550;13.462;2022-11-14T15:04:27;19.90;;;11.67;;
9807;SDS011;4943;52.550;13.462;2022-11-14T15:06:56;18.97;;;10.20;;
9807;SDS011;4943;52.550;13.462;2022-11-14T15:09:25;22.70;;;12.23;;
9807;SDS011;4943;52.550;13.462;2022-11-14T15:11:57;19.73;;;11.23;;
9807;SDS011;4943;52.550;13.462;2022-11-14T15:14:28;20.57;;;12.60;;